sensor_id;sensor_type;location;lat;lon;timestamp;temperature;humidity
18690;DHT22;9782;52.930;15.562;2022-09-06T00:02:11;13.00;1.00
18690;DHT22;9782;52.930;15.562;2022-09-06T00:03:54;13.00;1.00
18690;DHT22;9782;52.930;15.562;2022-09-06T00:06:43;12.90;1.00
18690;DHT22;9782;52.930;15.562;2022-09-06T00:09:32;12.90;1.00
18690;DHT22;9782;52.930;15.562;2022-09-06T00:12:10;12.90;1.00
18690;DHT22;9782;52.930;15.562;2022-09-06T00:15:08;12.80;1.00
18690;DHT22;9782;52.930;15.562;2022-09-06T00:17:41;12.80;1.00
18690;DHT22;9782;52.930;15.562;2022-09-06T00:20:17;12.70;1.00
18690;DHT22;9782;52.930;15.562;2022-09-06T00:22:52;12.70;1.00
18690;DHT22;9782;52.930;15.562;2022-09-06T00:25:30;12.70;1.00
18690;DHT22;9782;52.930;15.562;2022-09-06T00:28:19;12.60;1.00
18690;DHT22;9782;52.930;15.562;2022-09-06T00:30:52;12.60;1.00
18690;DHT22;9782;52.930;15.562;2022-09-06T00:33:28;12.50;1.00
18690;DHT22;9782;52.930;15.562;2022-09-06T00:36:32;12.50;1.00
18690;DHT22;9782;52.930;15.562;2022-09-06T00:42:01;12.40;1.00
18690;DHT22;9782;52.930;15.562;2022-09-06T00:44:29;12.40;1.00
18690;DHT22;9782;52.930;15.562;2022-09-06T00:47:01;12.40;1.00
18690;DHT22;9782;52.930;15.562;2022-09-06T00:49:43;12.30;1.00
18690;DHT22;9782;52.930;15.562;2022-09-06T00:52:20;12.30;1.00
18690;DHT22;9782;52.930;15.562;2022-09-06T00:54:54;12.30;1.00
18690;DHT22;9782;52.930;15.562;2022-09-06T00:57:34;12.30;1.00
18690;DHT22;9782;52.930;15.562;2022-09-06T01:00:20;12.20;1.00
18690;DHT22;9782;52.930;15.562;2022-09-06T01:02:59;12.20;1.00
18690;DHT22;9782;52.930;15.562;2022-09-06T01:05:40;12.20;1.00
18690;DHT22;9782;52.930;15.562;2022-09-06T01:08:45;12.20;1.00
18690;DHT22;9782;52.930;15.562;2022-09-06T01:14:04;12.10;1.00
18690;DHT22;9782;52.930;15.562;2022-09-06T01:16:39;12.00;1.00
18690;DHT22;9782;52.930;15.562;2022-09-06T01:19:26;12.10;1.00
18690;DHT22;9782;52.930;15.562;2022-09-06T01:22:06;12.00;1.00
18690;DHT22;9782;52.930;15.562;2022-09-06T01:24:56;12.00;1.00
18690;DHT22;9782;52.930;15.562;2022-09-06T01:30:31;12.00;1.00
18690;DHT22;9782;52.930;15.562;2022-09-06T01:33:09;12.00;1.00
18690;DHT22;9782;52.930;15.562;2022-09-06T01:35:46;11.90;1.00
18690;DHT22;9782;52.930;15.562;2022-09-06T01:38:25;11.90;1.00
18690;DHT22;9782;52.930;15.562;2022-09-06T01:41:18;11.80;1.00
18690;DHT22;9782;52.930;15.562;2022-09-06T01:46:50;11.80;1.00
18690;DHT22;9782;52.930;15.562;2022-09-06T01:49:27;11.70;1.00
18690;DHT22;9782;52.930;15.562;2022-09-06T01:52:15;11.70;1.00
18690;DHT22;9782;52.930;15.562;2022-09-06T01:55:01;11.70;1.00
18690;DHT22;9782;52.930;15.562;2022-09-06T01:58:07;11.70;1.00
18690;DHT22;9782;52.930;15.562;2022-09-06T02:00:47;11.70;1.00
18690;DHT22;9782;52.930;15.562;2022-09-06T02:06:33;11.60;4.50
18690;DHT22;9782;52.930;15.562;2022-09-06T02:09:08;11.50;1.00
18690;DHT22;9782;52.930;15.562;2022-09-06T02:11:50;11.50;1.00
18690;DHT22;9782;52.930;15.562;2022-09-06T02:14:41;11.50;1.00
18690;DHT22;9782;52.930;15.562;2022-09-06T02:17:23;10.90;1.00
18690;DHT22;9782;52.930;15.562;2022-09-06T02:20:13;11.50;1.00
18690;DHT22;9782;52.930;15.562;2022-09-06T02:23:02;11.60;99.90
18690;DHT22;9782;52.930;15.562;2022-09-06T02:25:36;11.40;19.70
18690;DHT22;9782;52.930;15.562;2022-09-06T02:28:23;11.30;1.00
18690;DHT22;9782;52.930;15.562;2022-09-06T02:31:03;11.40;99.90
18690;DHT22;9782;52.930;15.562;2022-09-06T02:33:42;11.30;1.00
18690;DHT22;9782;52.930;15.562;2022-09-06T02:36:24;11.30;11.90
18690;DHT22;9782;52.930;15.562;2022-09-06T02:39:13;11.20;22.90
18690;DHT22;9782;52.930;15.562;2022-09-06T02:41:56;11.20;1.00
18690;DHT22;9782;52.930;15.562;2022-09-06T02:44:46;11.20;30.00
18690;DHT22;9782;52.930;15.562;2022-09-06T02:47:20;11.10;21.60
18690;DHT22;9782;52.930;15.562;2022-09-06T02:49:57;11.10;17.50
18690;DHT22;9782;52.930;15.562;2022-09-06T02:52:35;11.10;47.80
18690;DHT22;9782;52.930;15.562;2022-09-06T02:55:15;11.10;22.00
18690;DHT22;9782;52.930;15.562;2022-09-06T02:58:03;11.10;44.70
18690;DHT22;9782;52.930;15.562;2022-09-06T03:00:43;11.00;36.50
18690;DHT22;9782;52.930;15.562;2022-09-06T03:03:21;11.00;53.00
18690;DHT22;9782;52.930;15.562;2022-09-06T03:05:57;11.00;34.20
18690;DHT22;9782;52.930;15.562;2022-09-06T03:08:41;11.00;19.10
18690;DHT22;9782;52.930;15.562;2022-09-06T03:14:10;10.90;44.90
18690;DHT22;9782;52.930;15.562;2022-09-06T03:16:44;10.90;28.80
18690;DHT22;9782;52.930;15.562;2022-09-06T03:19:21;10.90;48.70
18690;DHT22;9782;52.930;15.562;2022-09-06T03:22:00;10.80;78.30
18690;DHT22;9782;52.930;15.562;2022-09-06T03:24:55;10.80;39.40
18690;DHT22;9782;52.930;15.562;2022-09-06T03:27:27;10.80;29.50
18690;DHT22;9782;52.930;15.562;2022-09-06T03:30:06;10.80;92.10
18690;DHT22;9782;52.930;15.562;2022-09-06T03:32:38;10.80;59.80
18690;DHT22;9782;52.930;15.562;2022-09-06T03:35:14;10.70;93.50
18690;DHT22;9782;52.930;15.562;2022-09-06T03:38:10;10.70;88.20
18690;DHT22;9782;52.930;15.562;2022-09-06T03:40:53;10.70;91.50
18690;DHT22;9782;52.930;15.562;2022-09-06T03:43:24;10.70;74.90
18690;DHT22;9782;52.930;15.562;2022-09-06T03:45:55;10.70;93.30
18690;DHT22;9782;52.930;15.562;2022-09-06T03:48:24;10.70;92.50
18690;DHT22;9782;52.930;15.562;2022-09-06T03:51:08;10.60;89.80
18690;DHT22;9782;52.930;15.562;2022-09-06T03:53:48;10.60;84.00
18690;DHT22;9782;52.930;15.562;2022-09-06T03:56:23;10.60;99.90
18690;DHT22;9782;52.930;15.562;2022-09-06T03:58:50;10.60;99.90
18690;DHT22;9782;52.930;15.562;2022-09-06T04:06:51;10.50;99.90
18690;DHT22;9782;52.930;15.562;2022-09-06T04:09:33;10.50;99.90
18690;DHT22;9782;52.930;15.562;2022-09-06T04:12:07;10.50;99.90
18690;DHT22;9782;52.930;15.562;2022-09-06T04:14:34;10.40;99.90
18690;DHT22;9782;52.930;15.562;2022-09-06T04:17:13;10.50;99.90
18690;DHT22;9782;52.930;15.562;2022-09-06T04:19:45;10.50;99.90
18690;DHT22;9782;52.930;15.562;2022-09-06T04:22:15;10.50;99.90
18690;DHT22;9782;52.930;15.562;2022-09-06T04:24:42;10.50;99.90
18690;DHT22;9782;52.930;15.562;2022-09-06T04:27:09;10.50;99.90
18690;DHT22;9782;52.930;15.562;2022-09-06T04:29:36;10.50;99.90
18690;DHT22;9782;52.930;15.562;2022-09-06T04:32:06;10.50;99.90
18690;DHT22;9782;52.930;15.562;2022-09-06T04:34:33;10.50;99.90
18690;DHT22;9782;52.930;15.562;2022-09-06T04:37:07;10.50;99.90
18690;DHT22;9782;52.930;15.562;2022-09-06T04:39:35;10.50;99.90
18690;DHT22;9782;52.930;15.562;2022-09-06T04:42:02;10.50;99.90
18690;DHT22;9782;52.930;15.562;2022-09-06T04:44:29;10.50;99.90
18690;DHT22;9782;52.930;15.562;2022-09-06T04:47:03;10.50;99.90
18690;DHT22;9782;52.930;15.562;2022-09-06T04:49:30;10.50;99.90
18690;DHT22;9782;52.930;15.562;2022-09-06T04:51:57;10.50;99.90
18690;DHT22;9782;52.930;15.562;2022-09-06T04:54:29;10.60;99.90
18690;DHT22;9782;52.930;15.562;2022-09-06T04:56:56;10.50;99.90
18690;DHT22;9782;52.930;15.562;2022-09-06T04:59:23;10.60;99.90
18690;DHT22;9782;52.930;15.562;2022-09-06T05:01:50;10.60;99.90
18690;DHT22;9782;52.930;15.562;2022-09-06T05:04:17;10.60;99.90
18690;DHT22;9782;52.930;15.562;2022-09-06T05:06:44;10.60;99.90
18690;DHT22;9782;52.930;15.562;2022-09-06T05:09:11;10.70;99.90
18690;DHT22;9782;52.930;15.562;2022-09-06T05:11:39;10.90;99.90
18690;DHT22;9782;52.930;15.562;2022-09-06T05:14:05;11.50;99.90
18690;DHT22;9782;52.930;15.562;2022-09-06T05:16:32;12.40;99.90
18690;DHT22;9782;52.930;15.562;2022-09-06T05:18:59;13.20;9.20
18690;DHT22;9782;52.930;15.562;2022-09-06T05:21:26;13.90;1.00
18690;DHT22;9782;52.930;15.562;2022-09-06T05:23:53;14.60;1.00
18690;DHT22;9782;52.930;15.562;2022-09-06T05:26:19;15.10;1.00
18690;DHT22;9782;52.930;15.562;2022-09-06T05:28:48;15.60;1.00
18690;DHT22;9782;52.930;15.562;2022-09-06T05:31:22;16.10;1.00
18690;DHT22;9782;52.930;15.562;2022-09-06T05:33:50;16.50;1.00
18690;DHT22;9782;52.930;15.562;2022-09-06T05:36:17;16.80;1.00
18690;DHT22;9782;52.930;15.562;2022-09-06T05:38:44;17.10;1.00
18690;DHT22;9782;52.930;15.562;2022-09-06T05:41:10;17.50;1.00
18690;DHT22;9782;52.930;15.562;2022-09-06T05:43:37;17.80;1.00
18690;DHT22;9782;52.930;15.562;2022-09-06T05:46:06;18.00;1.00
18690;DHT22;9782;52.930;15.562;2022-09-06T05:48:53;18.20;1.00
18690;DHT22;9782;52.930;15.562;2022-09-06T05:51:20;18.30;1.00
18690;DHT22;9782;52.930;15.562;2022-09-06T05:53:51;18.50;1.00
18690;DHT22;9782;52.930;15.562;2022-09-06T05:56:23;18.70;1.00
18690;DHT22;9782;52.930;15.562;2022-09-06T05:58:50;18.90;1.00
18690;DHT22;9782;52.930;15.562;2022-09-06T06:01:20;19.20;1.00
18690;DHT22;9782;52.930;15.562;2022-09-06T06:03:49;19.40;1.00
18690;DHT22;9782;52.930;15.562;2022-09-06T06:06:17;19.50;1.00
18690;DHT22;9782;52.930;15.562;2022-09-06T06:08:47;19.80;1.00
18690;DHT22;9782;52.930;15.562;2022-09-06T06:11:14;20.00;1.00
18690;DHT22;9782;52.930;15.562;2022-09-06T06:13:47;20.00;1.00
18690;DHT22;9782;52.930;15.562;2022-09-06T06:16:18;20.30;1.00
18690;DHT22;9782;52.930;15.562;2022-09-06T06:18:51;20.70;1.00
18690;DHT22;9782;52.930;15.562;2022-09-06T06:21:19;20.80;1.00
18690;DHT22;9782;52.930;15.562;2022-09-06T06:23:50;21.00;1.00
18690;DHT22;9782;52.930;15.562;2022-09-06T06:26:20;21.20;1.00
18690;DHT22;9782;52.930;15.562;2022-09-06T06:28:47;21.30;1.00
18690;DHT22;9782;52.930;15.562;2022-09-06T06:31:14;21.50;1.00
18690;DHT22;9782;52.930;15.562;2022-09-06T06:33:41;21.70;1.00
18690;DHT22;9782;52.930;15.562;2022-09-06T06:36:19;21.90;1.00
18690;DHT22;9782;52.930;15.562;2022-09-06T06:38:50;22.10;1.00
18690;DHT22;9782;52.930;15.562;2022-09-06T06:41:26;22.40;1.00
18690;DHT22;9782;52.930;15.562;2022-09-06T06:43:53;22.70;1.00
18690;DHT22;9782;52.930;15.562;2022-09-06T06:46:21;22.90;1.00
18690;DHT22;9782;52.930;15.562;2022-09-06T06:48:55;23.00;1.00
18690;DHT22;9782;52.930;15.562;2022-09-06T06:51:30;23.20;1.00
18690;DHT22;9782;52.930;15.562;2022-09-06T06:53:58;23.30;1.00
18690;DHT22;9782;52.930;15.562;2022-09-06T06:56:27;23.50;1.00
18690;DHT22;9782;52.930;15.562;2022-09-06T06:58:55;23.50;1.00
18690;DHT22;9782;52.930;15.562;2022-09-06T07:01:23;23.40;1.00
18690;DHT22;9782;52.930;15.562;2022-09-06T07:03:51;23.50;1.00
18690;DHT22;9782;52.930;15.562;2022-09-06T07:06:19;23.40;1.00
18690;DHT22;9782;52.930;15.562;2022-09-06T07:08:50;23.40;1.00
18690;DHT22;9782;52.930;15.562;2022-09-06T07:11:17;23.50;1.00
18690;DHT22;9782;52.930;15.562;2022-09-06T07:13:44;23.50;1.00
18690;DHT22;9782;52.930;15.562;2022-09-06T07:16:12;23.70;1.00
18690;DHT22;9782;52.930;15.562;2022-09-06T07:18:39;23.90;1.00
18690;DHT22;9782;52.930;15.562;2022-09-06T07:21:11;23.90;1.00
18690;DHT22;9782;52.930;15.562;2022-09-06T07:23:41;23.90;1.00
18690;DHT22;9782;52.930;15.562;2022-09-06T07:26:23;23.90;1.00
18690;DHT22;9782;52.930;15.562;2022-09-06T07:28:52;24.20;1.00
18690;DHT22;9782;52.930;15.562;2022-09-06T07:31:20;24.10;1.00
18690;DHT22;9782;52.930;15.562;2022-09-06T07:33:58;24.10;1.00
18690;DHT22;9782;52.930;15.562;2022-09-06T07:36:25;24.10;1.00
18690;DHT22;9782;52.930;15.562;2022-09-06T07:38:52;24.10;1.00
18690;DHT22;9782;52.930;15.562;2022-09-06T07:41:20;24.10;1.00
18690;DHT22;9782;52.930;15.562;2022-09-06T07:43:51;24.10;1.00
18690;DHT22;9782;52.930;15.562;2022-09-06T07:46:18;24.10;1.00
18690;DHT22;9782;52.930;15.562;2022-09-06T07:48:46;24.10;1.00
18690;DHT22;9782;52.930;15.562;2022-09-06T07:51:14;24.10;1.00
18690;DHT22;9782;52.930;15.562;2022-09-06T07:53:42;23.90;1.00
18690;DHT22;9782;52.930;15.562;2022-09-06T07:56:10;24.00;1.00
18690;DHT22;9782;52.930;15.562;2022-09-06T07:58:38;24.60;1.00
18690;DHT22;9782;52.930;15.562;2022-09-06T08:01:16;25.00;1.00
18690;DHT22;9782;52.930;15.562;2022-09-06T08:03:44;25.30;1.00
18690;DHT22;9782;52.930;15.562;2022-09-06T08:06:11;25.90;1.00
18690;DHT22;9782;52.930;15.562;2022-09-06T08:08:38;26.40;1.00
18690;DHT22;9782;52.930;15.562;2022-09-06T08:11:05;26.60;1.00
18690;DHT22;9782;52.930;15.562;2022-09-06T08:13:35;26.80;1.00
18690;DHT22;9782;52.930;15.562;2022-09-06T08:16:06;26.80;1.00
18690;DHT22;9782;52.930;15.562;2022-09-06T08:18:38;27.20;1.00
18690;DHT22;9782;52.930;15.562;2022-09-06T08:21:07;27.80;1.00
18690;DHT22;9782;52.930;15.562;2022-09-06T08:23:35;28.10;1.00
18690;DHT22;9782;52.930;15.562;2022-09-06T08:26:03;28.30;1.00
18690;DHT22;9782;52.930;15.562;2022-09-06T08:28:30;28.10;1.00
18690;DHT22;9782;52.930;15.562;2022-09-06T08:33:42;27.60;1.00
18690;DHT22;9782;52.930;15.562;2022-09-06T08:36:12;27.50;1.00
18690;DHT22;9782;52.930;15.562;2022-09-06T08:55:36;26.50;1.00
18690;DHT22;9782;52.930;15.562;2022-09-06T09:01:11;26.50;1.00
18690;DHT22;9782;52.930;15.562;2022-09-06T09:03:57;26.50;1.00
18690;DHT22;9782;52.930;15.562;2022-09-06T09:06:25;26.70;1.00
18690;DHT22;9782;52.930;15.562;2022-09-06T09:08:57;26.50;1.00
18690;DHT22;9782;52.930;15.562;2022-09-06T09:11:28;26.00;1.00
18690;DHT22;9782;52.930;15.562;2022-09-06T09:14:00;25.40;1.00
18690;DHT22;9782;52.930;15.562;2022-09-06T09:16:28;24.80;1.00
18690;DHT22;9782;52.930;15.562;2022-09-06T09:18:56;24.40;1.00
18690;DHT22;9782;52.930;15.562;2022-09-06T09:21:24;24.10;1.00
18690;DHT22;9782;52.930;15.562;2022-09-06T09:23:53;23.90;1.00
18690;DHT22;9782;52.930;15.562;2022-09-06T09:26:22;24.10;1.00
18690;DHT22;9782;52.930;15.562;2022-09-06T09:29:06;24.30;1.00
18690;DHT22;9782;52.930;15.562;2022-09-06T09:31:37;24.80;1.00
18690;DHT22;9782;52.930;15.562;2022-09-06T09:34:11;25.30;1.00
18690;DHT22;9782;52.930;15.562;2022-09-06T09:36:39;25.40;1.00
18690;DHT22;9782;52.930;15.562;2022-09-06T09:39:10;25.60;1.00
18690;DHT22;9782;52.930;15.562;2022-09-06T09:41:38;25.70;1.00
18690;DHT22;9782;52.930;15.562;2022-09-06T09:44:09;25.80;1.00
18690;DHT22;9782;52.930;15.562;2022-09-06T09:46:44;25.60;1.00
18690;DHT22;9782;52.930;15.562;2022-09-06T09:49:16;25.40;1.00
18690;DHT22;9782;52.930;15.562;2022-09-06T09:52:03;25.20;1.00
18690;DHT22;9782;52.930;15.562;2022-09-06T09:54:31;25.10;1.00
18690;DHT22;9782;52.930;15.562;2022-09-06T09:57:05;25.20;1.00
18690;DHT22;9782;52.930;15.562;2022-09-06T09:59:36;25.20;1.00
18690;DHT22;9782;52.930;15.562;2022-09-06T10:04:53;25.00;1.00
18690;DHT22;9782;52.930;15.562;2022-09-06T10:07:25;24.90;1.00
18690;DHT22;9782;52.930;15.562;2022-09-06T10:10:02;24.70;1.00
18690;DHT22;9782;52.930;15.562;2022-09-06T10:12:31;24.50;1.00
18690;DHT22;9782;52.930;15.562;2022-09-06T10:15:09;24.30;1.00
18690;DHT22;9782;52.930;15.562;2022-09-06T10:17:46;24.40;1.00
18690;DHT22;9782;52.930;15.562;2022-09-06T10:20:15;24.50;1.00
18690;DHT22;9782;52.930;15.562;2022-09-06T10:22:48;24.20;1.00
18690;DHT22;9782;52.930;15.562;2022-09-06T10:25:29;24.00;1.00
18690;DHT22;9782;52.930;15.562;2022-09-06T10:33:50;23.90;1.00
18690;DHT22;9782;52.930;15.562;2022-09-06T10:36:22;23.80;1.00
18690;DHT22;9782;52.930;15.562;2022-09-06T10:39:01;23.80;1.00
18690;DHT22;9782;52.930;15.562;2022-09-06T10:41:34;23.80;1.00
18690;DHT22;9782;52.930;15.562;2022-09-06T10:44:15;23.70;1.00
18690;DHT22;9782;52.930;15.562;2022-09-06T10:46:50;23.60;1.00
18690;DHT22;9782;52.930;15.562;2022-09-06T10:49:23;23.60;1.00
18690;DHT22;9782;52.930;15.562;2022-09-06T10:51:54;23.60;1.00
18690;DHT22;9782;52.930;15.562;2022-09-06T10:54:23;23.70;1.00
18690;DHT22;9782;52.930;15.562;2022-09-06T10:56:54;23.70;1.00
18690;DHT22;9782;52.930;15.562;2022-09-06T10:59:25;23.70;1.00
18690;DHT22;9782;52.930;15.562;2022-09-06T11:01:55;23.50;1.00
18690;DHT22;9782;52.930;15.562;2022-09-06T11:04:34;23.50;1.00
18690;DHT22;9782;52.930;15.562;2022-09-06T11:07:02;23.50;1.00
18690;DHT22;9782;52.930;15.562;2022-09-06T11:09:31;23.70;1.00
18690;DHT22;9782;52.930;15.562;2022-09-06T11:12:01;23.90;1.00
18690;DHT22;9782;52.930;15.562;2022-09-06T11:14:29;23.90;1.00
18690;DHT22;9782;52.930;15.562;2022-09-06T11:16:58;23.90;1.00
18690;DHT22;9782;52.930;15.562;2022-09-06T11:19:31;23.90;1.00
18690;DHT22;9782;52.930;15.562;2022-09-06T11:22:06;23.90;1.00
18690;DHT22;9782;52.930;15.562;2022-09-06T11:24:50;23.80;1.00
18690;DHT22;9782;52.930;15.562;2022-09-06T11:27:21;24.00;1.00
18690;DHT22;9782;52.930;15.562;2022-09-06T11:29:53;24.30;1.00
18690;DHT22;9782;52.930;15.562;2022-09-06T11:32:28;24.40;1.00
18690;DHT22;9782;52.930;15.562;2022-09-06T11:34:59;24.50;1.00
18690;DHT22;9782;52.930;15.562;2022-09-06T11:37:29;24.60;1.00
18690;DHT22;9782;52.930;15.562;2022-09-06T11:40:02;24.60;1.00
18690;DHT22;9782;52.930;15.562;2022-09-06T11:42:38;24.60;1.00
18690;DHT22;9782;52.930;15.562;2022-09-06T11:45:13;24.40;1.00
18690;DHT22;9782;52.930;15.562;2022-09-06T11:47:46;24.30;1.00
18690;DHT22;9782;52.930;15.562;2022-09-06T11:50:25;24.20;1.00
18690;DHT22;9782;52.930;15.562;2022-09-06T11:52:57;24.10;1.00
18690;DHT22;9782;52.930;15.562;2022-09-06T11:55:35;23.90;1.00
18690;DHT22;9782;52.930;15.562;2022-09-06T11:58:03;23.80;1.00
18690;DHT22;9782;52.930;15.562;2022-09-06T12:00:31;23.70;1.00
18690;DHT22;9782;52.930;15.562;2022-09-06T12:02:58;23.60;1.00
18690;DHT22;9782;52.930;15.562;2022-09-06T12:05:27;23.60;1.00
18690;DHT22;9782;52.930;15.562;2022-09-06T12:10:43;23.90;1.00
18690;DHT22;9782;52.930;15.562;2022-09-06T12:13:31;24.00;1.00
18690;DHT22;9782;52.930;15.562;2022-09-06T12:15:58;24.10;1.00
18690;DHT22;9782;52.930;15.562;2022-09-06T12:21:15;24.10;1.00
18690;DHT22;9782;52.930;15.562;2022-09-06T12:23:58;24.30;1.00
18690;DHT22;9782;52.930;15.562;2022-09-06T12:29:08;24.20;1.00
18690;DHT22;9782;52.930;15.562;2022-09-06T12:31:36;24.10;1.00
18690;DHT22;9782;52.930;15.562;2022-09-06T12:34:05;24.00;1.00
18690;DHT22;9782;52.930;15.562;2022-09-06T12:36:34;23.90;1.00
18690;DHT22;9782;52.930;15.562;2022-09-06T12:39:02;23.90;1.00
18690;DHT22;9782;52.930;15.562;2022-09-06T12:41:30;23.80;1.00
18690;DHT22;9782;52.930;15.562;2022-09-06T12:43:58;23.70;1.00
18690;DHT22;9782;52.930;15.562;2022-09-06T12:46:25;23.70;1.00
18690;DHT22;9782;52.930;15.562;2022-09-06T12:49:03;23.70;1.00
18690;DHT22;9782;52.930;15.562;2022-09-06T12:51:30;23.80;1.00
18690;DHT22;9782;52.930;15.562;2022-09-06T12:53:59;23.90;1.00
18690;DHT22;9782;52.930;15.562;2022-09-06T12:56:26;24.10;1.00
18690;DHT22;9782;52.930;15.562;2022-09-06T13:01:35;24.20;1.00
18690;DHT22;9782;52.930;15.562;2022-09-06T13:04:04;24.30;1.00
18690;DHT22;9782;52.930;15.562;2022-09-06T13:06:34;24.20;1.00
18690;DHT22;9782;52.930;15.562;2022-09-06T13:09:06;24.10;1.00
18690;DHT22;9782;52.930;15.562;2022-09-06T13:11:34;23.90;1.00
18690;DHT22;9782;52.930;15.562;2022-09-06T13:14:08;23.90;1.00
18690;DHT22;9782;52.930;15.562;2022-09-06T13:16:41;24.00;1.00
18690;DHT22;9782;52.930;15.562;2022-09-06T13:19:11;24.10;1.00
18690;DHT22;9782;52.930;15.562;2022-09-06T13:21:39;23.90;1.00
18690;DHT22;9782;52.930;15.562;2022-09-06T13:24:18;23.80;1.00
18690;DHT22;9782;52.930;15.562;2022-09-06T13:26:45;23.70;1.00
18690;DHT22;9782;52.930;15.562;2022-09-06T13:29:20;23.60;1.00
18690;DHT22;9782;52.930;15.562;2022-09-06T13:31:47;23.50;1.00
18690;DHT22;9782;52.930;15.562;2022-09-06T13:34:18;23.50;1.00
18690;DHT22;9782;52.930;15.562;2022-09-06T13:36:47;23.40;1.00
18690;DHT22;9782;52.930;15.562;2022-09-06T13:39:28;23.30;1.00
18690;DHT22;9782;52.930;15.562;2022-09-06T13:41:59;23.30;1.00
18690;DHT22;9782;52.930;15.562;2022-09-06T13:44:27;23.40;1.00
18690;DHT22;9782;52.930;15.562;2022-09-06T13:46:55;23.40;1.00
18690;DHT22;9782;52.930;15.562;2022-09-06T13:49:22;23.40;1.00
18690;DHT22;9782;52.930;15.562;2022-09-06T13:51:52;23.40;1.00
18690;DHT22;9782;52.930;15.562;2022-09-06T13:54:19;23.40;1.00
18690;DHT22;9782;52.930;15.562;2022-09-06T13:56:52;23.40;1.00
18690;DHT22;9782;52.930;15.562;2022-09-06T13:59:19;23.30;1.00
18690;DHT22;9782;52.930;15.562;2022-09-06T14:01:47;23.30;1.00
18690;DHT22;9782;52.930;15.562;2022-09-06T14:04:18;23.30;1.00
18690;DHT22;9782;52.930;15.562;2022-09-06T14:06:47;23.20;1.00
18690;DHT22;9782;52.930;15.562;2022-09-06T14:09:17;23.10;1.00
18690;DHT22;9782;52.930;15.562;2022-09-06T14:17:36;23.10;1.00
18690;DHT22;9782;52.930;15.562;2022-09-06T14:20:08;23.00;1.00
18690;DHT22;9782;52.930;15.562;2022-09-06T14:22:37;22.90;1.00
18690;DHT22;9782;52.930;15.562;2022-09-06T14:25:05;22.80;1.00
18690;DHT22;9782;52.930;15.562;2022-09-06T14:27:32;22.80;1.00
18690;DHT22;9782;52.930;15.562;2022-09-06T14:30:00;22.70;1.00
18690;DHT22;9782;52.930;15.562;2022-09-06T14:32:30;22.70;1.00
18690;DHT22;9782;52.930;15.562;2022-09-06T14:34:59;22.60;1.00
18690;DHT22;9782;52.930;15.562;2022-09-06T14:40:33;22.40;1.00
18690;DHT22;9782;52.930;15.562;2022-09-06T14:43:03;22.40;1.00
18690;DHT22;9782;52.930;15.562;2022-09-06T14:45:37;22.30;1.00
18690;DHT22;9782;52.930;15.562;2022-09-06T14:48:05;22.30;1.00
18690;DHT22;9782;52.930;15.562;2022-09-06T14:50:37;22.30;1.00
18690;DHT22;9782;52.930;15.562;2022-09-06T14:53:09;22.30;1.00
18690;DHT22;9782;52.930;15.562;2022-09-06T14:55:37;22.30;1.00
18690;DHT22;9782;52.930;15.562;2022-09-06T14:58:05;22.30;1.00
18690;DHT22;9782;52.930;15.562;2022-09-06T15:00:50;22.30;1.00
18690;DHT22;9782;52.930;15.562;2022-09-06T15:03:21;22.20;1.00
18690;DHT22;9782;52.930;15.562;2022-09-06T15:05:50;22.20;1.00
18690;DHT22;9782;52.930;15.562;2022-09-06T15:08:18;22.20;1.00
18690;DHT22;9782;52.930;15.562;2022-09-06T15:10:50;22.10;1.00
18690;DHT22;9782;52.930;15.562;2022-09-06T15:13:18;22.00;1.00
18690;DHT22;9782;52.930;15.562;2022-09-06T15:15:45;22.00;1.00
18690;DHT22;9782;52.930;15.562;2022-09-06T15:18:13;22.00;1.00
18690;DHT22;9782;52.930;15.562;2022-09-06T15:20:41;21.90;1.00
18690;DHT22;9782;52.930;15.562;2022-09-06T15:23:09;21.80;1.00
18690;DHT22;9782;52.930;15.562;2022-09-06T15:25:36;21.80;1.00
18690;DHT22;9782;52.930;15.562;2022-09-06T15:28:03;21.70;1.00
18690;DHT22;9782;52.930;15.562;2022-09-06T15:30:30;21.60;1.00
18690;DHT22;9782;52.930;15.562;2022-09-06T15:32:56;21.50;1.00
18690;DHT22;9782;52.930;15.562;2022-09-06T15:35:27;21.40;1.00
18690;DHT22;9782;52.930;15.562;2022-09-06T15:37:54;21.30;1.00
18690;DHT22;9782;52.930;15.562;2022-09-06T15:40:22;21.20;1.00
18690;DHT22;9782;52.930;15.562;2022-09-06T15:42:51;21.10;1.00
18690;DHT22;9782;52.930;15.562;2022-09-06T15:45:17;21.10;1.00
18690;DHT22;9782;52.930;15.562;2022-09-06T15:47:45;21.00;1.00
18690;DHT22;9782;52.930;15.562;2022-09-06T15:50:11;20.90;1.00
18690;DHT22;9782;52.930;15.562;2022-09-06T15:52:39;20.80;1.00
18690;DHT22;9782;52.930;15.562;2022-09-06T15:55:06;20.80;1.00
18690;DHT22;9782;52.930;15.562;2022-09-06T15:57:59;20.70;1.00
18690;DHT22;9782;52.930;15.562;2022-09-06T16:00:46;20.70;1.00
18690;DHT22;9782;52.930;15.562;2022-09-06T16:03:16;20.70;1.00
18690;DHT22;9782;52.930;15.562;2022-09-06T16:05:43;20.60;1.00
18690;DHT22;9782;52.930;15.562;2022-09-06T16:08:10;20.60;1.00
18690;DHT22;9782;52.930;15.562;2022-09-06T16:10:37;20.60;1.00
18690;DHT22;9782;52.930;15.562;2022-09-06T16:13:10;20.60;1.00
18690;DHT22;9782;52.930;15.562;2022-09-06T16:15:54;20.50;1.00
18690;DHT22;9782;52.930;15.562;2022-09-06T16:18:25;20.50;1.00
18690;DHT22;9782;52.930;15.562;2022-09-06T16:20:55;20.50;1.00
18690;DHT22;9782;52.930;15.562;2022-09-06T16:23:23;20.50;1.00
18690;DHT22;9782;52.930;15.562;2022-09-06T16:25:51;20.40;1.00
18690;DHT22;9782;52.930;15.562;2022-09-06T16:28:19;20.40;1.00
18690;DHT22;9782;52.930;15.562;2022-09-06T16:30:46;20.40;1.00
18690;DHT22;9782;52.930;15.562;2022-09-06T16:33:13;20.30;1.00
18690;DHT22;9782;52.930;15.562;2022-09-06T16:35:40;20.40;1.00
18690;DHT22;9782;52.930;15.562;2022-09-06T16:38:07;20.30;1.00
18690;DHT22;9782;52.930;15.562;2022-09-06T16:40:34;20.30;1.00
18690;DHT22;9782;52.930;15.562;2022-09-06T16:43:02;20.20;1.00
18690;DHT22;9782;52.930;15.562;2022-09-06T16:45:30;20.20;1.00
18690;DHT22;9782;52.930;15.562;2022-09-06T16:48:09;20.20;1.00
18690;DHT22;9782;52.930;15.562;2022-09-06T16:50:40;20.20;1.00
18690;DHT22;9782;52.930;15.562;2022-09-06T16:53:18;20.20;1.00
18690;DHT22;9782;52.930;15.562;2022-09-06T16:58:38;20.10;1.00
18690;DHT22;9782;52.930;15.562;2022-09-06T17:04:28;20.00;1.00
18690;DHT22;9782;52.930;15.562;2022-09-06T17:07:09;19.80;1.00
18690;DHT22;9782;52.930;15.562;2022-09-06T17:09:37;19.70;1.00
18690;DHT22;9782;52.930;15.562;2022-09-06T17:12:08;19.70;1.00
18690;DHT22;9782;52.930;15.562;2022-09-06T17:14:44;19.60;1.00
18690;DHT22;9782;52.930;15.562;2022-09-06T17:17:11;19.50;1.00
18690;DHT22;9782;52.930;15.562;2022-09-06T17:19:40;19.40;1.00
18690;DHT22;9782;52.930;15.562;2022-09-06T17:22:07;19.30;1.00
18690;DHT22;9782;52.930;15.562;2022-09-06T17:24:34;19.20;1.00
18690;DHT22;9782;52.930;15.562;2022-09-06T17:27:01;19.20;1.00
18690;DHT22;9782;52.930;15.562;2022-09-06T17:29:28;19.10;1.00
18690;DHT22;9782;52.930;15.562;2022-09-06T17:31:55;19.00;1.00
18690;DHT22;9782;52.930;15.562;2022-09-06T17:34:22;18.90;1.00
18690;DHT22;9782;52.930;15.562;2022-09-06T17:36:51;18.80;1.00